Time;durP1;ratioP1;P1;durP2;ratioP2;P2;SDS_P1;SDS_P2;PMS_P1;PMS_P2;Temp;Humidity;BMP_temperature;BMP_pressure;BME280_temperature;BME280_humidity;BME280_pressure;Samples;Min_cycle;Max_cycle;Signal;HPM_P1;HPM_P2
2023/12/15 00:00:18;;;;;;;11.23;7.70;;;2.00;99.90;;;;;;5051515;28;20228;-56
2023/12/15 00:02:46;;;;;;;10.30;7.38;;;2.00;99.90;;;;;;5052058;28;20210;-54
2023/12/15 00:05:13;;;;;;;10.32;7.25;;;2.00;99.90;;;;;;5052164;28;20229;-57
2023/12/15 00:07:40;;;;;;;8.35;6.35;;;2.00;99.90;;;;;;5051638;28;20645;-56
2023/12/15 00:10:08;;;;;;;10.23;7.25;;;2.00;99.90;;;;;;5052082;28;20202;-57
2023/12/15 00:12:35;;;;;;;11.95;9.30;;;2.00;99.90;;;;;;5051859;28;20214;-58
2023/12/15 00:15:03;;;;;;;9.65;6.88;;;2.00;99.90;;;;;;5051621;28;20206;-58
2023/12/15 00:17:30;;;;;;;9.65;8.18;;;2.00;99.90;;;;;;5051219;28;20207;-58
2023/12/15 00:19:58;;;;;;;10.20;6.80;;;2.10;99.90;;;;;;5051652;28;20233;-56
2023/12/15 00:22:25;;;;;;;10.93;8.95;;;2.00;99.90;;;;;;5051669;28;20297;-57
2023/12/15 00:24:52;;;;;;;15.80;10.68;;;1.90;99.90;;;;;;5051728;28;20702;-56
2023/12/15 00:27:19;;;;;;;12.45;8.23;;;1.90;99.90;;;;;;5051849;28;20206;-54
2023/12/15 00:29:45;;;;;;;10.40;8.63;;;1.90;99.90;;;;;;5051032;28;20209;-58
2023/12/15 00:32:12;;;;;;;13.57;9.65;;;1.90;99.90;;;;;;5051349;28;20226;-55
2023/12/15 00:34:39;;;;;;;13.73;9.18;;;1.90;99.90;;;;;;5051978;28;20293;-56
2023/12/15 00:37:07;;;;;;;13.30;9.60;;;1.80;99.90;;;;;;5052148;28;20677;-55
2023/12/15 00:39:36;;;;;;;15.90;9.82;;;1.80;99.90;;;;;;5050781;28;20222;-57
2023/12/15 00:42:04;;;;;;;15.73;11.48;;;1.80;99.90;;;;;;5050047;28;20305;-56
2023/12/15 00:44:32;;;;;;;11.15;8.05;;;1.80;99.90;;;;;;5051228;28;20209;-58
2023/12/15 00:46:59;;;;;;;10.85;8.25;;;1.80;99.90;;;;;;5051620;28;20209;-56
2023/12/15 00:49:26;;;;;;;10.98;8.02;;;1.80;99.90;;;;;;5049176;28;20237;-57
2023/12/15 00:51:53;;;;;;;11.75;8.73;;;1.70;99.90;;;;;;5051730;28;20237;-56
2023/12/15 00:54:21;;;;;;;15.43;8.50;;;1.70;99.90;;;;;;5052064;28;20213;-55
2023/12/15 00:56:48;;;;;;;10.75;8.77;;;1.70;99.90;;;;;;5048874;28;20729;-56
2023/12/15 00:59:15;;;;;;;15.52;9.57;;;1.70;99.90;;;;;;5050845;28;20212;-57
2023/12/15 01:01:42;;;;;;;9.70;7.95;;;1.70;99.90;;;;;;5051274;28;20238;-57
2023/12/15 01:04:09;;;;;;;8.75;6.97;;;1.70;99.90;;;;;;5051611;28;20210;-53
2023/12/15 01:06:36;;;;;;;11.98;8.23;;;1.70;99.90;;;;;;5051474;28;20289;-53
2023/12/15 01:09:03;;;;;;;15.48;8.60;;;1.70;99.90;;;;;;5051261;28;20209;-55
2023/12/15 01:11:31;;;;;;;13.20;9.48;;;1.70;99.90;;;;;;5050997;28;20222;-57
2023/12/15 01:13:58;;;;;;;12.52;8.30;;;1.80;99.90;;;;;;5051649;28;20289;-57
2023/12/15 01:16:24;;;;;;;11.98;7.35;;;1.80;99.90;;;;;;5050953;28;20206;-56
2023/12/15 01:18:51;;;;;;;10.82;8.80;;;1.80;99.90;;;;;;5050648;28;20202;-57
2023/12/15 01:21:18;;;;;;;10.75;7.60;;;1.80;99.90;;;;;;5050963;28;20234;-57
2023/12/15 01:23:45;;;;;;;11.82;8.52;;;1.80;99.90;;;;;;5051904;28;20216;-55
2023/12/15 01:26:12;;;;;;;13.10;8.80;;;1.80;99.90;;;;;;5051763;28;20297;-53
2023/12/15 01:28:40;;;;;;;15.70;9.77;;;1.90;99.90;;;;;;5051760;28;20297;-55
2023/12/15 01:31:07;;;;;;;14.63;8.90;;;1.90;99.90;;;;;;5051415;28;20736;-54
2023/12/15 01:33:34;;;;;;;12.15;7.65;;;2.00;99.90;;;;;;5051025;28;20301;-56
2023/12/15 01:36:00;;;;;;;16.30;9.57;;;2.00;99.90;;;;;;5051870;28;20586;-58
2023/12/15 01:38:27;;;;;;;13.52;9.50;;;2.00;99.90;;;;;;5051235;28;20297;-55
2023/12/15 01:40:54;;;;;;;12.57;9.10;;;2.00;99.90;;;;;;5050568;28;20229;-53
2023/12/15 01:43:21;;;;;;;10.85;8.70;;;2.10;99.90;;;;;;5051615;28;20214;-56
2023/12/15 01:45:50;;;;;;;11.27;8.25;;;2.10;99.90;;;;;;5051518;28;20224;-54
2023/12/15 01:48:17;;;;;;;14.82;9.00;;;2.20;99.90;;;;;;5051040;28;20810;-58
2023/12/15 01:50:44;;;;;;;14.77;9.07;;;2.20;99.90;;;;;;5051462;28;20679;-55
2023/12/15 01:53:11;;;;;;;13.70;9.10;;;2.30;99.90;;;;;;5051654;28;20616;-57
2023/12/15 01:55:38;;;;;;;12.02;8.65;;;2.30;99.90;;;;;;5051270;28;20208;-53
2023/12/15 01:58:05;;;;;;;12.90;8.63;;;2.40;99.90;;;;;;5051035;28;20224;-55
2023/12/15 02:00:32;;;;;;;13.13;10.30;;;2.40;99.90;;;;;;5051348;28;20322;-57
2023/12/15 02:03:00;;;;;;;12.63;8.55;;;2.40;99.90;;;;;;5051460;28;20297;-55
2023/12/15 02:05:27;;;;;;;12.30;8.35;;;2.50;99.90;;;;;;5051624;28;20206;-55
2023/12/15 02:07:53;;;;;;;13.57;9.55;;;2.50;99.90;;;;;;5051142;28;20210;-54
2023/12/15 02:10:20;;;;;;;14.82;8.15;;;2.50;99.90;;;;;;5051353;28;20222;-57
2023/12/15 02:12:47;;;;;;;11.27;9.68;;;2.50;99.90;;;;;;5051179;28;20293;-55
2023/12/15 02:15:14;;;;;;;13.43;8.77;;;2.50;99.90;;;;;;5051275;28;20576;-54
2023/12/15 02:17:42;;;;;;;13.73;10.15;;;2.60;99.90;;;;;;5051207;28;20860;-52
2023/12/15 02:20:11;;;;;;;18.10;8.50;;;2.60;99.90;;;;;;5051254;28;20708;-57
2023/12/15 02:22:39;;;;;;;12.52;8.88;;;2.50;99.90;;;;;;5051435;28;20293;-55
2023/12/15 02:25:06;;;;;;;15.20;8.82;;;2.50;99.90;;;;;;5054146;28;20216;-55
2023/12/15 02:27:34;;;;;;;10.80;8.40;;;2.50;99.90;;;;;;5054458;28;20297;-57
2023/12/15 02:30:00;;;;;;;11.48;8.68;;;2.50;99.90;;;;;;5054982;28;20198;-57
2023/12/15 02:32:27;;;;;;;12.15;8.10;;;2.50;99.90;;;;;;5054752;28;20739;-56
2023/12/15 02:34:54;;;;;;;13.82;9.40;;;2.50;99.90;;;;;;5054932;28;20297;-55
2023/12/15 02:37:21;;;;;;;10.95;8.20;;;2.50;99.90;;;;;;5055029;28;20210;-54
2023/12/15 02:39:49;;;;;;;10.52;7.32;;;2.50;99.90;;;;;;5054379;28;20207;-56
2023/12/15 02:42:16;;;;;;;12.70;7.53;;;2.50;99.90;;;;;;5054331;28;20291;-58
2023/12/15 02:44:44;;;;;;;12.63;8.55;;;2.50;99.90;;;;;;5054657;28;20216;-53
2023/12/15 02:47:11;;;;;;;13.07;10.27;;;2.50;99.90;;;;;;5054526;28;20297;-53
2023/12/15 02:49:39;;;;;;;11.57;7.88;;;2.50;99.90;;;;;;5054536;28;20217;-54
2023/12/15 02:52:07;;;;;;;20.23;10.65;;;2.60;99.90;;;;;;5054211;28;20316;-56
2023/12/15 02:54:34;;;;;;;17.75;10.23;;;2.60;99.90;;;;;;5054299;28;20203;-57
2023/12/15 02:57:02;;;;;;;12.48;8.00;;;2.60;99.90;;;;;;5054560;28;20206;-54
2023/12/15 02:59:29;;;;;;;14.02;10.32;;;2.60;99.90;;;;;;5054396;28;20202;-54
2023/12/15 03:01:56;;;;;;;14.70;9.02;;;2.70;99.90;;;;;;5054152;28;20324;-52
2023/12/15 03:04:22;;;;;;;13.93;10.20;;;2.70;99.90;;;;;;5054346;28;20210;-53
2023/12/15 03:06:49;;;;;;;12.75;8.65;;;2.70;99.90;;;;;;5054174;28;20645;-54
2023/12/15 03:09:16;;;;;;;30.67;16.10;;;2.70;99.90;;;;;;5053641;28;20297;-57
2023/12/15 03:11:43;;;;;;;34.17;19.17;;;2.70;99.90;;;;;;5054157;28;20222;-53
2023/12/15 03:14:11;;;;;;;32.47;18.25;;;2.80;99.90;;;;;;5054289;28;20218;-53
2023/12/15 03:16:38;;;;;;;26.77;15.98;;;2.80;99.90;;;;;;5054195;28;20592;-57
2023/12/15 03:19:05;;;;;;;29.08;16.52;;;2.80;99.90;;;;;;5053748;28;20209;-57
2023/12/15 03:21:32;;;;;;;19.08;13.32;;;2.80;99.90;;;;;;5053876;28;20324;-56
2023/12/15 03:23:59;;;;;;;26.85;14.88;;;2.80;99.90;;;;;;5053861;28;20210;-55
2023/12/15 03:26:26;;;;;;;22.90;13.20;;;2.80;99.90;;;;;;5053747;28;20214;-57
2023/12/15 03:28:53;;;;;;;23.55;13.85;;;2.80;99.90;;;;;;5053812;28;20207;-56
2023/12/15 03:31:21;;;;;;;22.02;13.57;;;2.90;99.90;;;;;;5053529;28;20226;-56
2023/12/15 03:33:48;;;;;;;19.98;13.20;;;2.90;99.90;;;;;;5053759;28;20606;-53
2023/12/15 03:36:14;;;;;;;21.63;14.57;;;2.90;99.90;;;;;;5053212;28;20210;-57
2023/12/15 03:38:41;;;;;;;23.85;15.40;;;2.90;99.90;;;;;;5053670;28;20293;-55
2023/12/15 03:41:08;;;;;;;21.45;11.15;;;2.90;99.90;;;;;;5053591;28;20233;-56
2023/12/15 03:43:35;;;;;;;20.77;13.20;;;2.90;99.90;;;;;;5053211;28;20202;-55
2023/12/15 03:46:02;;;;;;;21.27;12.18;;;2.90;99.90;;;;;;5053286;28;20258;-53
2023/12/15 03:48:30;;;;;;;16.48;9.75;;;2.90;99.90;;;;;;5052947;28;20224;-55
2023/12/15 03:50:57;;;;;;;18.73;10.75;;;2.90;99.90;;;;;;5053088;28;20236;-56
2023/12/15 03:53:24;;;;;;;15.95;10.13;;;2.90;99.90;;;;;;5053328;28;20206;-58
2023/12/15 03:55:50;;;;;;;14.65;9.77;;;2.90;99.90;;;;;;5053230;28;20217;-56
2023/12/15 03:58:17;;;;;;;18.38;9.70;;;2.90;99.90;;;;;;5053187;28;20594;-55
2023/12/15 04:00:44;;;;;;;18.50;10.32;;;2.90;99.90;;;;;;5053092;28;20227;-57
2023/12/15 04:03:11;;;;;;;13.40;10.00;;;2.90;99.90;;;;;;5053307;28;20309;-56
2023/12/15 04:05:39;;;;;;;19.20;10.57;;;2.90;99.90;;;;;;5053126;28;20298;-54
2023/12/15 04:08:06;;;;;;;14.63;9.50;;;2.90;99.90;;;;;;5053034;28;20213;-55
2023/12/15 04:10:33;;;;;;;13.98;9.80;;;2.90;99.90;;;;;;5053029;28;20309;-57
2023/12/15 04:13:00;;;;;;;19.27;11.27;;;3.00;99.90;;;;;;5052954;28;20206;-56
2023/12/15 04:15:26;;;;;;;15.70;10.05;;;3.00;99.90;;;;;;5052841;28;20704;-54
2023/12/15 04:17:53;;;;;;;15.60;10.13;;;3.00;99.90;;;;;;5052478;28;20212;-56
2023/12/15 04:20:20;;;;;;;15.93;9.82;;;3.00;99.90;;;;;;5052613;28;20229;-56
2023/12/15 04:22:48;;;;;;;18.75;10.82;;;3.00;99.90;;;;;;5052888;28;20241;-55
2023/12/15 04:25:15;;;;;;;13.15;9.95;;;3.00;99.90;;;;;;5052811;28;20210;-57
2023/12/15 04:27:42;;;;;;;16.95;10.20;;;3.10;99.90;;;;;;5052502;28;20206;-56
2023/12/15 04:30:10;;;;;;;16.30;10.63;;;3.10;99.90;;;;;;5052103;28;20680;-56
2023/12/15 04:32:37;;;;;;;11.55;9.75;;;3.10;99.90;;;;;;5075319;22;20671;-59
2023/12/15 04:35:05;;;;;;;15.57;9.35;;;3.10;99.90;;;;;;5052522;28;20572;-58
2023/12/15 04:37:31;;;;;;;17.85;10.80;;;3.10;99.90;;;;;;5052458;28;20219;-59
2023/12/15 04:39:59;;;;;;;16.88;9.60;;;3.10;99.90;;;;;;5052502;28;20210;-57
2023/12/15 04:42:27;;;;;;;16.58;10.48;;;3.10;99.90;;;;;;5051989;28;20252;-56
2023/12/15 04:44:55;;;;;;;16.58;10.70;;;3.10;99.90;;;;;;5052282;28;20323;-56
2023/12/15 04:47:21;;;;;;;16.70;10.10;;;3.10;99.90;;;;;;5050496;28;20297;-59
2023/12/15 04:49:48;;;;;;;14.13;10.95;;;3.10;99.90;;;;;;5051959;28;20216;-59
2023/12/15 04:52:15;;;;;;;13.95;10.40;;;3.20;99.90;;;;;;5051987;28;20226;-57
2023/12/15 04:54:42;;;;;;;10.25;8.68;;;3.10;99.90;;;;;;5051728;28;20293;-59
2023/12/15 04:57:10;;;;;;;12.45;9.70;;;3.10;99.90;;;;;;5051876;28;20210;-59
2023/12/15 04:59:39;;;;;;;15.75;10.20;;;3.10;99.90;;;;;;5051774;28;20202;-53
2023/12/15 05:02:07;;;;;;;17.92;10.10;;;3.10;99.90;;;;;;5052004;28;20238;-58
2023/12/15 05:04:33;;;;;;;15.65;10.90;;;3.20;99.90;;;;;;5051888;28;20293;-54
2023/12/15 05:07:01;;;;;;;12.70;9.35;;;3.20;99.90;;;;;;5051690;28;20212;-57
2023/12/15 05:09:28;;;;;;;14.40;9.88;;;3.20;99.90;;;;;;5051880;28;20213;-59
2023/12/15 05:11:55;;;;;;;14.65;9.77;;;3.20;99.90;;;;;;5051917;28;20226;-59
2023/12/15 05:14:23;;;;;;;13.70;9.30;;;3.10;99.90;;;;;;5051209;28;20305;-59
2023/12/15 05:16:50;;;;;;;11.57;9.20;;;3.10;99.90;;;;;;5051402;28;20252;-57
2023/12/15 05:19:17;;;;;;;13.55;8.68;;;3.10;99.90;;;;;;5051512;28;20293;-58
2023/12/15 05:21:44;;;;;;;14.57;10.15;;;3.10;99.90;;;;;;5051254;28;20230;-57
2023/12/15 05:24:11;;;;;;;14.25;9.98;;;3.00;99.90;;;;;;5051746;28;20228;-57
2023/12/15 05:26:37;;;;;;;12.13;9.00;;;3.00;99.90;;;;;;5051533;28;20206;-59
2023/12/15 05:29:04;;;;;;;17.00;10.73;;;3.00;99.90;;;;;;5050204;28;20293;-58
2023/12/15 05:31:32;;;;;;;15.30;9.80;;;3.00;99.90;;;;;;5051184;28;20226;-59
2023/12/15 05:33:59;;;;;;;15.02;7.80;;;3.00;99.90;;;;;;5051492;28;20207;-59
2023/12/15 05:36:26;;;;;;;15.85;11.00;;;3.00;99.90;;;;;;5051368;28;20220;-58
2023/12/15 05:38:53;;;;;;;11.63;8.30;;;3.00;99.90;;;;;;5051470;28;20228;-56
2023/12/15 05:41:20;;;;;;;10.95;8.27;;;3.00;99.90;;;;;;5051130;28;20226;-57
2023/12/15 05:43:47;;;;;;;13.60;9.00;;;3.00;99.90;;;;;;5051448;28;20207;-59
2023/12/15 05:46:14;;;;;;;16.92;10.38;;;3.00;99.90;;;;;;5051044;28;20673;-58
2023/12/15 05:48:42;;;;;;;13.30;8.50;;;3.00;99.90;;;;;;5051111;28;20582;-58
2023/12/15 05:51:09;;;;;;;16.77;10.38;;;3.10;99.90;;;;;;5051489;28;20253;-57
2023/12/15 05:53:36;;;;;;;15.52;10.25;;;3.10;99.90;;;;;;5051513;28;20212;-59
2023/12/15 05:56:03;;;;;;;12.77;7.70;;;3.10;99.90;;;;;;5051247;28;20699;-59
2023/12/15 05:58:30;;;;;;;17.58;10.00;;;3.10;99.90;;;;;;5053263;28;20206;-58
2023/12/15 06:00:56;;;;;;;11.90;8.77;;;3.10;99.90;;;;;;5055180;28;20222;-59
2023/12/15 06:03:23;;;;;;;12.93;9.48;;;3.10;99.90;;;;;;5055012;28;20213;-58
2023/12/15 06:05:51;;;;;;;15.43;9.13;;;3.10;99.90;;;;;;5055269;28;20252;-57
2023/12/15 06:08:18;;;;;;;14.50;11.43;;;3.10;99.90;;;;;;5054896;28;20703;-58
2023/12/15 06:10:45;;;;;;;13.32;8.27;;;3.10;99.90;;;;;;5055200;28;20357;-57
2023/12/15 06:13:12;;;;;;;13.07;9.13;;;3.10;99.90;;;;;;5055134;28;20748;-59
2023/12/15 06:15:39;;;;;;;12.95;8.57;;;3.10;99.90;;;;;;5055015;28;20309;-58
2023/12/15 06:18:06;;;;;;;13.00;8.30;;;3.00;99.90;;;;;;5054880;28;20202;-59
2023/12/15 06:20:33;;;;;;;14.15;8.05;;;3.00;99.90;;;;;;5054882;28;20704;-56
2023/12/15 06:23:02;;;;;;;11.20;9.80;;;3.00;99.90;;;;;;5054722;28;20222;-58
2023/12/15 06:25:28;;;;;;;12.65;8.48;;;3.00;99.90;;;;;;5054831;28;20210;-59
2023/12/15 06:27:55;;;;;;;13.80;9.10;;;3.00;99.90;;;;;;5054617;28;20310;-58
2023/12/15 06:30:22;;;;;;;16.50;10.05;;;2.90;99.90;;;;;;5054715;28;20865;-57
2023/12/15 06:32:49;;;;;;;14.95;9.98;;;2.90;99.90;;;;;;5054513;28;20230;-59
2023/12/15 06:35:17;;;;;;;13.75;8.80;;;2.90;99.90;;;;;;5054837;28;20584;-56
2023/12/15 06:37:44;;;;;;;12.40;7.90;;;2.80;99.90;;;;;;5054358;28;20210;-57
2023/12/15 06:40:12;;;;;;;12.05;9.55;;;2.80;99.90;;;;;;5054650;28;20212;-57
2023/12/15 06:42:39;;;;;;;13.27;9.13;;;2.80;99.90;;;;;;5054427;28;20321;-56
2023/12/15 06:45:08;;;;;;;15.25;9.88;;;2.80;99.90;;;;;;5054413;28;20643;-54
2023/12/15 06:47:37;;;;;;;17.52;10.20;;;2.80;99.90;;;;;;5054296;28;20220;-59
2023/12/15 06:50:05;;;;;;;17.77;10.35;;;2.80;99.90;;;;;;5054606;28;20217;-59
2023/12/15 06:52:33;;;;;;;15.27;10.48;;;2.80;99.90;;;;;;5054409;28;20280;-58
2023/12/15 06:55:00;;;;;;;19.15;12.05;;;2.80;99.90;;;;;;5054312;28;20305;-56
2023/12/15 06:57:28;;;;;;;15.55;9.20;;;2.90;99.90;;;;;;5054164;28;20214;-58
2023/12/15 06:59:56;;;;;;;15.98;10.32;;;2.90;99.90;;;;;;5054278;28;20297;-59
2023/12/15 07:02:22;;;;;;;14.02;9.15;;;2.90;99.90;;;;;;5053966;28;20325;-56
2023/12/15 07:04:49;;;;;;;15.88;8.80;;;2.90;99.90;;;;;;5054238;28;20591;-53
2023/12/15 07:07:16;;;;;;;16.27;10.35;;;3.00;99.90;;;;;;5054087;28;20211;-59
2023/12/15 07:09:43;;;;;;;15.93;12.10;;;3.00;99.90;;;;;;5053065;28;20202;-57
2023/12/15 07:12:10;;;;;;;14.98;10.85;;;3.00;99.90;;;;;;5053851;28;20233;-56
2023/12/15 07:14:38;;;;;;;15.52;10.30;;;3.00;99.90;;;;;;5053936;28;20568;-54
2023/12/15 07:17:05;;;;;;;18.85;11.02;;;3.00;99.90;;;;;;5053666;28;20213;-57
2023/12/15 07:19:32;;;;;;;13.30;10.27;;;2.90;99.90;;;;;;5053664;28;20207;-56
2023/12/15 07:21:58;;;;;;;14.93;11.05;;;3.00;99.90;;;;;;5053792;28;20230;-57
2023/12/15 07:24:25;;;;;;;15.70;9.88;;;3.00;99.90;;;;;;5053666;28;20217;-57
2023/12/15 07:26:52;;;;;;;17.42;11.82;;;3.00;99.90;;;;;;5053673;28;20214;-57
2023/12/15 07:29:21;;;;;;;15.60;11.85;;;3.00;99.90;;;;;;5053434;28;20241;-58
2023/12/15 07:31:49;;;;;;;17.15;11.25;;;3.00;99.90;;;;;;5053545;28;20284;-57
2023/12/15 07:34:16;;;;;;;18.73;11.20;;;3.10;99.90;;;;;;5053682;28;20261;-56
2023/12/15 07:36:43;;;;;;;18.83;11.38;;;3.10;99.90;;;;;;5053363;28;20210;-54
2023/12/15 07:39:10;;;;;;;15.38;10.52;;;3.10;99.90;;;;;;5053227;28;20641;-58
2023/12/15 07:41:39;;;;;;;15.38;10.20;;;3.20;99.90;;;;;;5053528;28;20230;-59
2023/12/15 07:44:06;;;;;;;15.30;9.52;;;3.20;99.90;;;;;;5053536;28;20206;-55
2023/12/15 07:46:33;;;;;;;22.85;12.85;;;3.30;99.90;;;;;;5053340;28;20206;-57
2023/12/15 07:49:01;;;;;;;13.38;9.60;;;3.30;99.90;;;;;;5053167;28;20221;-58
2023/12/15 07:51:28;;;;;;;18.77;10.85;;;3.40;99.90;;;;;;5053108;28;20230;-55
2023/12/15 07:53:55;;;;;;;20.00;11.02;;;3.40;99.90;;;;;;5053486;28;20210;-56
2023/12/15 07:56:23;;;;;;;21.50;11.60;;;3.50;99.90;;;;;;5053326;28;20212;-58
2023/12/15 07:58:50;;;;;;;25.95;14.60;;;3.50;99.90;;;;;;5042921;28;20202;-57
2023/12/15 08:01:17;;;;;;;17.48;12.70;;;3.60;99.90;;;;;;5042073;28;20215;-58
2023/12/15 08:03:45;;;;;;;18.55;12.93;;;3.60;99.90;;;;;;5053208;28;20694;-59
2023/12/15 08:06:14;;;;;;;19.23;13.05;;;3.60;99.90;;;;;;5049946;28;20677;-57
2023/12/15 08:08:41;;;;;;;17.58;12.20;;;3.70;99.90;;;;;;5049648;28;20205;-59
2023/12/15 08:11:09;;;;;;;13.98;11.30;;;3.70;99.90;;;;;;5050902;28;20771;-58
2023/12/15 08:13:36;;;;;;;16.55;10.40;;;3.70;99.90;;;;;;5046249;28;20207;-59
2023/12/15 08:16:04;;;;;;;17.20;11.68;;;3.80;99.90;;;;;;5044239;28;20211;-58
2023/12/15 08:18:31;;;;;;;22.70;13.77;;;3.80;99.90;;;;;;5051130;28;20206;-58
2023/12/15 08:20:57;;;;;;;16.27;13.05;;;3.80;99.90;;;;;;5048200;28;20257;-59
2023/12/15 08:23:26;;;;;;;15.32;11.00;;;3.90;99.90;;;;;;5051868;28;20314;-57
2023/12/15 08:25:53;;;;;;;15.23;12.02;;;3.90;99.90;;;;;;5051000;28;20628;-57
2023/12/15 08:28:20;;;;;;;15.57;12.50;;;3.90;99.90;;;;;;5051490;28;20654;-59
2023/12/15 08:30:48;;;;;;;17.50;12.35;;;3.90;99.90;;;;;;5048513;28;20824;-57
2023/12/15 08:33:14;;;;;;;21.10;14.50;;;3.90;99.90;;;;;;5043346;28;20282;-55
2023/12/15 08:35:41;;;;;;;24.65;14.82;;;3.90;99.90;;;;;;5047900;28;20683;-56
2023/12/15 08:38:08;;;;;;;17.45;13.27;;;4.00;99.90;;;;;;5041180;28;20205;-58
2023/12/15 08:40:37;;;;;;;18.13;10.73;;;4.00;99.90;;;;;;5046652;28;20587;-58
2023/12/15 08:43:04;;;;;;;16.88;10.90;;;4.00;99.90;;;;;;5041677;28;20701;-57
2023/12/15 08:45:31;;;;;;;25.10;14.40;;;4.10;99.90;;;;;;5046778;28;20221;-57
2023/12/15 08:47:58;;;;;;;25.10;15.05;;;4.10;99.90;;;;;;5049853;28;20203;-59
2023/12/15 08:50:25;;;;;;;18.00;13.35;;;4.10;99.90;;;;;;5046897;28;20596;-58
2023/12/15 08:52:51;;;;;;;15.45;12.60;;;4.10;99.90;;;;;;5043405;28;20202;-58
2023/12/15 08:55:19;;;;;;;22.08;17.27;;;4.20;99.90;;;;;;5049969;28;20207;-55
2023/12/15 08:57:47;;;;;;;19.88;14.27;;;4.20;99.90;;;;;;5048608;28;20747;-59
2023/12/15 09:00:14;;;;;;;16.75;13.45;;;4.30;99.90;;;;;;5045035;28;20213;-56
2023/12/15 09:02:41;;;;;;;18.80;13.20;;;4.40;99.90;;;;;;5043845;28;20272;-55
2023/12/15 09:05:10;;;;;;;19.05;12.05;;;4.40;99.90;;;;;;5042214;28;20209;-58
2023/12/15 09:07:37;;;;;;;18.58;13.00;;;4.40;99.90;;;;;;5046882;28;20617;-58
2023/12/15 09:10:05;;;;;;;22.63;13.60;;;4.50;99.90;;;;;;5050485;28;20202;-59
2023/12/15 09:12:32;;;;;;;22.25;15.63;;;4.50;99.90;;;;;;5047757;28;20229;-57
2023/12/15 09:15:00;;;;;;;22.60;15.98;;;4.60;99.90;;;;;;5040667;28;20729;-55
2023/12/15 09:17:27;;;;;;;21.00;13.88;;;4.70;99.90;;;;;;5046604;28;20213;-56
2023/12/15 09:19:53;;;;;;;18.15;14.18;;;4.70;99.90;;;;;;5048486;28;20586;-58
2023/12/15 09:22:20;;;;;;;21.42;14.18;;;4.80;99.90;;;;;;5049975;28;20230;-57
2023/12/15 09:24:47;;;;;;;22.85;13.82;;;4.90;99.90;;;;;;5050917;28;20207;-55
2023/12/15 09:27:14;;;;;;;24.75;14.50;;;5.10;99.90;;;;;;5048586;28;20650;-57
2023/12/15 09:29:41;;;;;;;20.20;12.75;;;5.20;99.90;;;;;;5049877;28;20606;-56
2023/12/15 09:32:09;;;;;;;23.73;13.52;;;5.30;99.90;;;;;;5049945;28;20230;-59
2023/12/15 09:34:36;;;;;;;19.35;16.88;;;5.40;99.90;;;;;;5048113;28;20314;-54
2023/12/15 09:37:03;;;;;;;19.27;14.68;;;5.50;99.90;;;;;;5049406;28;20206;-58
2023/12/15 09:39:29;;;;;;;16.85;13.05;;;5.60;99.90;;;;;;5049704;28;20651;-58
2023/12/15 09:41:56;;;;;;;20.67;13.23;;;5.70;99.90;;;;;;5048882;28;20222;-57
2023/12/15 09:44:23;;;;;;;18.80;12.65;;;5.70;99.90;;;;;;5049374;28;20206;-56
2023/12/15 09:46:51;;;;;;;18.90;12.68;;;5.80;99.90;;;;;;5050735;28;20202;-58
2023/12/15 09:49:24;;;;;;;20.02;12.68;;;5.80;99.90;;;;;;5049694;28;20579;-56
2023/12/15 09:51:51;;;;;;;23.40;14.32;;;5.90;99.90;;;;;;5050707;28;20238;-55
2023/12/15 09:54:20;;;;;;;21.25;13.82;;;5.90;99.90;;;;;;5049573;28;20648;-54
2023/12/15 09:56:47;;;;;;;20.65;14.48;;;6.00;99.90;;;;;;5050465;28;20306;-56
2023/12/15 09:59:14;;;;;;;21.75;14.82;;;6.00;99.90;;;;;;5049765;28;20198;-57
2023/12/15 10:01:41;;;;;;;25.55;13.25;;;6.00;99.90;;;;;;5050591;28;20318;-58
2023/12/15 10:04:08;;;;;;;16.10;11.85;;;6.10;99.90;;;;;;5049682;28;20715;-57
2023/12/15 10:06:37;;;;;;;18.05;11.45;;;6.10;99.90;;;;;;5047253;28;20217;-56
2023/12/15 10:09:12;;;;;;;18.10;12.32;;;6.10;99.90;;;;;;5044885;28;20285;-57
2023/12/15 10:11:40;;;;;;;12.43;10.05;;;6.20;99.90;;;;;;5049424;28;20230;-57
2023/12/15 10:14:07;;;;;;;21.08;13.95;;;6.20;99.90;;;;;;5049318;28;20224;-54
2023/12/15 10:16:35;;;;;;;21.70;13.57;;;6.30;99.90;;;;;;5050024;28;20680;-59
2023/12/15 10:19:04;;;;;;;19.88;11.52;;;6.40;99.90;;;;;;5049701;28;20306;-59
2023/12/15 10:21:31;;;;;;;20.27;12.27;;;6.50;99.90;;;;;;5046196;28;20229;-59
2023/12/15 10:24:00;;;;;;;16.98;11.27;;;6.60;99.90;;;;;;5041913;28;20230;-59
2023/12/15 10:26:28;;;;;;;23.60;13.50;;;6.70;99.90;;;;;;5049320;28;20203;-58
2023/12/15 10:28:56;;;;;;;18.35;12.75;;;6.60;99.90;;;;;;5048122;28;20214;-59
2023/12/15 10:31:26;;;;;;;19.92;13.57;;;6.70;99.90;;;;;;5072374;22;20234;-61
2023/12/15 10:33:53;;;;;;;15.68;12.13;;;6.70;99.90;;;;;;5006693;28;20224;-59
2023/12/15 10:36:20;;;;;;;14.40;10.55;;;6.70;99.90;;;;;;5009706;28;20211;-62
2023/12/15 10:38:47;;;;;;;19.83;13.50;;;6.80;99.90;;;;;;5008085;28;20214;-61
2023/12/15 10:41:16;;;;;;;17.73;10.90;;;6.80;99.90;;;;;;5010355;28;20310;-61
2023/12/15 10:43:43;;;;;;;19.30;11.90;;;6.80;99.90;;;;;;4990444;28;20598;-61
2023/12/15 10:46:11;;;;;;;15.90;12.63;;;6.90;99.90;;;;;;4990602;28;20734;-62
2023/12/15 10:48:40;;;;;;;13.57;11.35;;;6.90;99.90;;;;;;4994435;28;20217;-60
2023/12/15 10:51:08;;;;;;;16.08;11.38;;;7.00;99.90;;;;;;4990016;28;20211;-60
2023/12/15 10:53:39;;;;;;;16.02;11.30;;;7.10;99.90;;;;;;4994622;28;20335;-61
2023/12/15 10:56:06;;;;;;;16.15;10.07;;;7.20;99.90;;;;;;4993279;28;20226;-62
2023/12/15 10:58:35;;;;;;;15.75;10.35;;;7.20;99.90;;;;;;4993991;28;20209;-59
2023/12/15 11:01:03;;;;;;;15.60;11.80;;;7.20;99.90;;;;;;4994000;28;20291;-60
2023/12/15 11:03:30;;;;;;;15.65;12.15;;;7.30;99.90;;;;;;4994431;28;20232;-61
2023/12/15 11:05:57;;;;;;;14.32;12.07;;;7.30;99.90;;;;;;4993601;28;20299;-60
2023/12/15 11:08:24;;;;;;;17.63;10.90;;;7.30;99.90;;;;;;4994308;28;20287;-61
2023/12/15 11:10:51;;;;;;;15.57;10.77;;;7.40;99.90;;;;;;4991657;28;20200;-61
2023/12/15 11:13:50;;;;;;;14.02;10.38;;;7.40;99.90;;;;;;4993418;28;20228;-62
2023/12/15 11:16:18;;;;;;;17.40;12.07;;;7.40;99.90;;;;;;4990374;28;20741;-62
2023/12/15 11:18:45;;;;;;;16.48;11.43;;;7.40;99.90;;;;;;4993864;28;20311;-62
2023/12/15 11:21:12;;;;;;;17.45;11.35;;;7.40;99.90;;;;;;4992916;28;20208;-61
2023/12/15 11:23:50;;;;;;;17.20;12.10;;;7.50;99.90;;;;;;4993312;28;20242;-62
2023/12/15 11:26:21;;;;;;;16.02;11.05;;;7.40;99.90;;;;;;4992743;28;20211;-61
2023/12/15 11:28:49;;;;;;;14.80;11.40;;;7.40;99.90;;;;;;4993745;28;20219;-62
2023/12/15 11:31:25;;;;;;;12.98;10.15;;;7.30;99.90;;;;;;4992657;28;20584;-62
2023/12/15 11:33:52;;;;;;;13.27;10.10;;;7.20;99.90;;;;;;4993472;28;20196;-59
2023/12/15 11:36:19;;;;;;;10.20;9.10;;;7.20;99.90;;;;;;4988230;28;20558;-61
2023/12/15 11:38:48;;;;;;;15.73;10.80;;;7.10;99.90;;;;;;4988441;28;20255;-60
2023/12/15 11:41:18;;;;;;;12.75;11.45;;;7.10;99.90;;;;;;4992676;28;20844;-59
2023/12/15 11:43:45;;;;;;;13.10;9.68;;;7.10;99.90;;;;;;4993533;28;20228;-61
2023/12/15 11:46:12;;;;;;;12.38;9.93;;;7.10;99.90;;;;;;4991458;28;20722;-61
2023/12/15 11:48:43;;;;;;;12.63;11.25;;;7.10;99.90;;;;;;4993033;28;20222;-60
2023/12/15 11:51:10;;;;;;;15.48;10.35;;;7.10;99.90;;;;;;4990253;28;20208;-59
2023/12/15 11:53:39;;;;;;;13.43;9.75;;;7.10;99.90;;;;;;4993127;28;20229;-59
2023/12/15 11:56:07;;;;;;;14.20;10.75;;;7.00;99.90;;;;;;4986990;28;20251;-61
2023/12/15 11:58:35;;;;;;;16.50;12.25;;;7.00;99.90;;;;;;4992418;28;20289;-60
2023/12/15 12:01:03;;;;;;;11.82;9.88;;;7.00;99.90;;;;;;4991411;28;20208;-59
2023/12/15 12:03:31;;;;;;;10.40;8.75;;;7.00;99.90;;;;;;4992818;28;20243;-61
2023/12/15 12:06:05;;;;;;;16.63;12.40;;;7.00;99.90;;;;;;4992028;28;20211;-57
2023/12/15 12:08:32;;;;;;;21.35;11.48;;;7.00;99.90;;;;;;4991784;28;20691;-59
2023/12/15 12:10:59;;;;;;;18.27;12.15;;;7.00;99.90;;;;;;4991815;28;20208;-61
2023/12/15 12:13:32;;;;;;;16.88;12.75;;;7.00;99.90;;;;;;4991649;28;20221;-60
2023/12/15 12:16:00;;;;;;;14.23;10.48;;;7.00;99.90;;;;;;4992036;28;20205;-61
2023/12/15 12:18:27;;;;;;;12.57;11.27;;;7.00;99.90;;;;;;4988809;28;20236;-61
2023/12/15 12:20:55;;;;;;;17.90;12.07;;;7.00;99.90;;;;;;4989567;28;21347;-61
2023/12/15 12:23:27;;;;;;;16.35;11.02;;;7.00;99.90;;;;;;4988981;28;20229;-60
2023/12/15 12:25:55;;;;;;;12.88;11.20;;;7.00;99.90;;;;;;4987471;28;20212;-61
2023/12/15 12:28:22;;;;;;;14.50;10.80;;;7.00;99.90;;;;;;4991515;28;20667;-61
2023/12/15 12:30:49;;;;;;;14.50;11.52;;;7.10;99.90;;;;;;4989038;28;20298;-61
2023/12/15 12:33:18;;;;;;;14.05;10.57;;;7.10;99.90;;;;;;4986804;28;20339;-58
2023/12/15 12:35:46;;;;;;;13.15;10.15;;;7.10;99.90;;;;;;4990866;28;20215;-61
2023/12/15 12:38:12;;;;;;;14.40;10.45;;;7.10;99.90;;;;;;4982833;28;20296;-60
2023/12/15 12:40:41;;;;;;;13.63;11.65;;;7.10;99.90;;;;;;4990896;28;20291;-62